Time;durP1;ratioP1;P1;durP2;ratioP2;P2;SDS_P1;SDS_P2;PMS_P1;PMS_P2;Temp;Humidity;BMP_temperature;BMP_pressure;BME280_temperature;BME280_humidity;BME280_pressure;Samples;Min_cycle;Max_cycle;Signal;HPM_P1;HPM_P2
2022/12/09 00:02:05;;;;;;;35.60;16.38;;;2.70;99.90;;;;;;5131848;27;20042;-49
2022/12/09 00:04:32;;;;;;;31.73;16.95;;;2.70;99.90;;;;;;5131782;27;20058;-46
2022/12/09 00:06:58;;;;;;;31.45;16.73;;;2.70;99.90;;;;;;5131324;27;20047;-46
2022/12/09 00:09:23;;;;;;;31.50;16.92;;;2.70;99.90;;;;;;5131535;27;20046;-47
2022/12/09 00:11:51;;;;;;;32.63;17.35;;;2.70;99.90;;;;;;5131831;27;20031;-48
2022/12/09 00:14:17;;;;;;;34.22;16.38;;;2.60;99.90;;;;;;5131606;27;20096;-45
2022/12/09 00:16:43;;;;;;;30.02;16.77;;;2.60;99.90;;;;;;5131484;27;20043;-47
2022/12/09 00:19:08;;;;;;;33.35;16.98;;;2.70;99.90;;;;;;5131535;27;20359;-46
2022/12/09 00:21:34;;;;;;;35.08;16.48;;;2.70;99.90;;;;;;5131599;27;20037;-49
2022/12/09 00:24:03;;;;;;;30.92;16.17;;;2.70;99.90;;;;;;5131362;27;20034;-45
2022/12/09 00:26:29;;;;;;;33.75;16.98;;;2.60;99.90;;;;;;5130859;27;20496;-47
2022/12/09 00:28:55;;;;;;;31.98;17.45;;;2.70;99.90;;;;;;5131425;27;20035;-49
2022/12/09 00:31:26;;;;;;;34.05;17.77;;;2.70;99.90;;;;;;5131426;27;20046;-50
2022/12/09 00:33:56;;;;;;;31.90;16.70;;;2.60;99.90;;;;;;5131366;27;20398;-46
2022/12/09 00:36:22;;;;;;;36.15;18.05;;;2.70;99.90;;;;;;5131120;27;20378;-46
2022/12/09 00:38:48;;;;;;;35.08;17.83;;;2.60;99.90;;;;;;5129863;27;20437;-45
2022/12/09 00:41:15;;;;;;;32.30;17.70;;;2.70;99.90;;;;;;5130988;27;20110;-44
2022/12/09 00:43:42;;;;;;;34.08;16.92;;;2.60;99.90;;;;;;5130866;27;20038;-45
2022/12/09 00:46:09;;;;;;;33.28;17.85;;;2.70;99.90;;;;;;5131018;27;20497;-45
2022/12/09 00:48:37;;;;;;;35.97;18.95;;;3.10;99.90;;;;;;5130647;27;20051;-49
2022/12/09 00:51:03;;;;;;;30.98;16.13;;;2.70;99.90;;;;;;5111263;28;20039;-45
2022/12/09 00:53:29;;;;;;;24.73;12.65;;;2.60;99.90;;;;;;5112788;28;20159;-47
2022/12/09 00:55:55;;;;;;;20.70;10.65;;;2.60;99.90;;;;;;5131039;28;20118;-47
2022/12/09 00:58:21;;;;;;;18.27;9.85;;;2.60;99.90;;;;;;5130770;28;20035;-46
2022/12/09 01:00:47;;;;;;;18.80;9.77;;;2.60;99.90;;;;;;5131271;28;20057;-46
2022/12/09 01:03:14;;;;;;;26.10;12.48;;;2.50;99.90;;;;;;5130819;28;20035;-47
2022/12/09 01:05:40;;;;;;;27.00;14.82;;;2.60;99.90;;;;;;5130811;28;20071;-45
2022/12/09 01:08:06;;;;;;;25.40;14.82;;;2.70;99.90;;;;;;5112285;28;20122;-48
2022/12/09 01:10:33;;;;;;;28.45;16.17;;;2.70;99.90;;;;;;5131200;28;20371;-46
2022/12/09 01:12:59;;;;;;;25.90;13.07;;;2.60;99.90;;;;;;5112170;28;20047;-46
2022/12/09 01:15:24;;;;;;;23.52;12.57;;;2.60;99.90;;;;;;5128827;28;20126;-49
2022/12/09 01:17:50;;;;;;;23.85;12.45;;;2.60;99.90;;;;;;5130462;28;20472;-51
2022/12/09 01:20:16;;;;;;;22.55;11.63;;;2.60;99.90;;;;;;5129541;28;20039;-44
2022/12/09 01:22:42;;;;;;;24.67;11.95;;;2.60;99.90;;;;;;5112321;28;20069;-46
2022/12/09 01:25:08;;;;;;;24.88;12.70;;;2.60;99.90;;;;;;5130875;28;20039;-48
2022/12/09 01:27:34;;;;;;;20.05;11.10;;;2.60;99.90;;;;;;5129547;28;20027;-44
2022/12/09 01:29:59;;;;;;;20.40;11.15;;;2.60;99.90;;;;;;5130832;28;20112;-49
2022/12/09 01:32:25;;;;;;;23.15;12.35;;;2.60;99.90;;;;;;5130821;28;20149;-48
2022/12/09 01:34:51;;;;;;;22.02;12.00;;;2.60;99.90;;;;;;5127793;28;20039;-46
2022/12/09 01:37:17;;;;;;;20.38;10.63;;;2.60;99.90;;;;;;5130871;28;20394;-47
2022/12/09 01:39:42;;;;;;;24.35;10.60;;;2.60;99.90;;;;;;5116005;27;20075;-45
2022/12/09 01:42:19;;;;;;;17.95;10.52;;;2.60;99.90;;;;;;5134381;27;20031;-46
2022/12/09 01:45:20;;;;;;;17.83;9.75;;;2.60;99.90;;;;;;5134651;27;20035;-46
2022/12/09 01:47:55;;;;;;;16.10;9.40;;;2.60;99.90;;;;;;5133192;27;20122;-48
2022/12/09 01:50:21;;;;;;;22.42;9.75;;;2.60;99.90;;;;;;5132806;27;20045;-47
2022/12/09 01:52:48;;;;;;;20.13;10.55;;;2.50;99.90;;;;;;5134399;27;20071;-45
2022/12/09 01:55:15;;;;;;;19.73;10.07;;;2.50;99.90;;;;;;5134049;27;20035;-46
2022/12/09 01:57:41;;;;;;;18.73;9.98;;;2.50;99.90;;;;;;5133954;27;20043;-47
2022/12/09 02:00:08;;;;;;;16.98;9.32;;;2.50;99.90;;;;;;5114209;27;20031;-46
2022/12/09 02:02:35;;;;;;;17.30;9.02;;;2.40;99.90;;;;;;5133427;27;20031;-47
2022/12/09 02:05:02;;;;;;;18.45;9.45;;;2.40;99.90;;;;;;5133816;27;20067;-49
2022/12/09 02:07:27;;;;;;;18.23;9.65;;;2.40;99.90;;;;;;5133927;27;20051;-48
2022/12/09 02:09:53;;;;;;;18.05;9.88;;;2.30;99.90;;;;;;5133233;27;20042;-45
2022/12/09 02:12:26;;;;;;;20.67;9.68;;;2.40;99.90;;;;;;5133765;27;20031;-44
2022/12/09 02:15:10;;;;;;;18.80;10.02;;;2.40;99.90;;;;;;5134061;27;20477;-45
2022/12/09 02:17:53;;;;;;;18.67;10.18;;;2.40;99.90;;;;;;5132759;27;20505;-50
2022/12/09 02:20:24;;;;;;;17.42;9.02;;;2.30;99.90;;;;;;5115126;27;20223;-47
2022/12/09 02:23:02;;;;;;;20.05;10.25;;;2.30;99.90;;;;;;5133845;27;20039;-46
2022/12/09 02:25:35;;;;;;;17.42;9.38;;;2.30;99.90;;;;;;5133584;27;20050;-47
2022/12/09 02:28:14;;;;;;;16.08;8.88;;;2.30;99.90;;;;;;5133974;27;20177;-48
2022/12/09 02:31:08;;;;;;;17.05;9.25;;;2.30;99.90;;;;;;5133272;27;20062;-50
2022/12/09 02:33:51;;;;;;;19.08;9.55;;;2.30;99.90;;;;;;5133722;27;20041;-48
2022/12/09 02:36:19;;;;;;;18.85;8.85;;;2.30;99.90;;;;;;5133207;27;20122;-47
2022/12/09 02:38:47;;;;;;;17.85;9.63;;;2.30;99.90;;;;;;5133592;27;20069;-48
2022/12/09 02:41:18;;;;;;;17.30;9.63;;;2.30;99.90;;;;;;5133334;27;20035;-47
2022/12/09 02:43:53;;;;;;;21.58;9.88;;;2.30;99.90;;;;;;5133785;27;20035;-47
2022/12/09 02:46:20;;;;;;;17.38;9.05;;;2.30;99.90;;;;;;5132080;27;20035;-48
2022/12/09 02:48:54;;;;;;;17.58;9.32;;;2.20;99.90;;;;;;5133068;27;20055;-46
2022/12/09 02:51:21;;;;;;;17.13;9.80;;;2.30;99.90;;;;;;5132242;27;20036;-47
2022/12/09 02:53:51;;;;;;;17.40;9.30;;;2.30;99.90;;;;;;5133278;27;20067;-47
2022/12/09 02:56:17;;;;;;;17.65;8.95;;;2.30;99.90;;;;;;5114409;27;20043;-47
2022/12/09 02:58:43;;;;;;;17.90;9.45;;;2.30;99.90;;;;;;5133211;27;20031;-46
2022/12/09 03:01:20;;;;;;;17.95;9.50;;;2.30;99.90;;;;;;5132390;27;20042;-48
2022/12/09 03:03:45;;;;;;;17.95;9.68;;;2.30;99.90;;;;;;5131785;27;20492;-44
2022/12/09 03:06:15;;;;;;;19.38;9.82;;;2.30;99.90;;;;;;5132016;27;20031;-48
2022/12/09 03:08:41;;;;;;;17.98;9.95;;;2.20;99.90;;;;;;5133174;27;20058;-47
2022/12/09 03:11:09;;;;;;;18.65;10.60;;;2.30;99.90;;;;;;5133031;27;20027;-46
2022/12/09 03:14:01;;;;;;;19.38;9.25;;;2.30;99.90;;;;;;5132968;27;20046;-45
2022/12/09 03:16:33;;;;;;;16.70;9.05;;;2.20;99.90;;;;;;5132265;27;20035;-45
2022/12/09 03:19:07;;;;;;;17.58;9.18;;;2.20;99.90;;;;;;5132320;27;21144;-46
2022/12/09 03:21:38;;;;;;;17.67;9.05;;;2.10;99.90;;;;;;5133003;27;20047;-46
2022/12/09 03:24:07;;;;;;;17.00;9.15;;;2.10;99.90;;;;;;5132279;27;20531;-49
2022/12/09 03:26:36;;;;;;;18.48;8.77;;;2.10;99.90;;;;;;5131834;27;20379;-47
2022/12/09 03:29:07;;;;;;;19.40;9.60;;;2.10;99.90;;;;;;5132327;27;20527;-46
2022/12/09 03:31:34;;;;;;;20.58;9.82;;;2.10;99.90;;;;;;5131154;27;20031;-47
2022/12/09 03:34:04;;;;;;;19.25;9.23;;;2.00;99.90;;;;;;5131162;27;20090;-48
2022/12/09 03:36:37;;;;;;;17.90;9.60;;;2.00;99.90;;;;;;5113318;27;20099;-46
2022/12/09 03:39:06;;;;;;;18.75;9.75;;;2.00;99.90;;;;;;5113497;27;20050;-46
2022/12/09 03:41:32;;;;;;;18.13;9.73;;;1.90;99.90;;;;;;5097193;27;20027;-49
2022/12/09 03:44:07;;;;;;;17.85;9.50;;;2.00;99.90;;;;;;5113425;27;20035;-47
2022/12/09 03:46:33;;;;;;;20.38;10.50;;;2.00;99.90;;;;;;5130569;27;20035;-50
2022/12/09 03:48:59;;;;;;;22.30;10.98;;;2.00;99.90;;;;;;5131902;27;20095;-49
2022/12/09 03:51:29;;;;;;;19.83;10.60;;;1.90;99.90;;;;;;5131991;27;20394;-45
2022/12/09 03:54:00;;;;;;;21.95;10.45;;;2.00;99.90;;;;;;5130882;27;20037;-45
2022/12/09 03:56:37;;;;;;;20.17;10.63;;;2.00;99.90;;;;;;5095257;27;20035;-46
2022/12/09 03:59:06;;;;;;;19.75;10.30;;;1.90;99.90;;;;;;5131728;27;20046;-48
2022/12/09 04:01:32;;;;;;;20.95;10.35;;;1.90;99.90;;;;;;5130492;27;20038;-46
2022/12/09 04:03:58;;;;;;;20.13;10.77;;;2.00;99.90;;;;;;5131638;27;20031;-45
2022/12/09 04:06:23;;;;;;;23.02;11.20;;;1.90;99.90;;;;;;5131427;27;20092;-47
2022/12/09 04:08:49;;;;;;;21.48;10.98;;;2.00;99.90;;;;;;5130567;27;20031;-45
2022/12/09 04:11:15;;;;;;;22.95;11.45;;;2.00;99.90;;;;;;5131775;27;20048;-45
2022/12/09 04:13:40;;;;;;;20.45;11.18;;;2.00;99.90;;;;;;5131827;27;20413;-44
2022/12/09 04:16:06;;;;;;;21.25;10.95;;;2.00;99.90;;;;;;5130357;27;20038;-45
2022/12/09 04:18:33;;;;;;;23.95;12.57;;;2.00;99.90;;;;;;5131314;27;20046;-45
2022/12/09 04:20:59;;;;;;;21.45;10.48;;;1.90;99.90;;;;;;5131663;27;20114;-45
2022/12/09 04:23:24;;;;;;;23.50;12.18;;;1.90;99.90;;;;;;5131603;27;20541;-44
2022/12/09 04:25:50;;;;;;;20.00;10.63;;;1.80;99.90;;;;;;5113121;27;20030;-46
2022/12/09 04:28:15;;;;;;;22.58;10.90;;;1.70;99.90;;;;;;5131647;27;20071;-47
2022/12/09 04:30:45;;;;;;;20.52;11.00;;;1.60;99.90;;;;;;5131505;27;20043;-47
2022/12/09 04:33:11;;;;;;;19.75;10.35;;;1.60;99.90;;;;;;5131420;27;20483;-48
2022/12/09 04:35:36;;;;;;;22.27;11.75;;;1.50;99.90;;;;;;5131175;27;20046;-49
2022/12/09 04:38:02;;;;;;;20.55;10.75;;;1.40;99.90;;;;;;5131017;27;20039;-46
2022/12/09 04:40:28;;;;;;;22.00;11.02;;;1.40;99.90;;;;;;5131361;27;20117;-47
2022/12/09 04:42:53;;;;;;;25.25;12.32;;;1.30;99.90;;;;;;5131402;27;20046;-48
2022/12/09 04:45:22;;;;;;;23.85;11.18;;;1.20;99.90;;;;;;5113410;27;20543;-46
2022/12/09 04:47:48;;;;;;;23.23;11.57;;;1.20;99.90;;;;;;5131253;27;20039;-46
2022/12/09 04:50:14;;;;;;;23.80;11.38;;;1.20;99.90;;;;;;5130726;27;20047;-46
2022/12/09 04:52:39;;;;;;;27.27;12.07;;;1.00;99.90;;;;;;5112888;28;20047;-47
2022/12/09 04:55:06;;;;;;;23.63;12.27;;;1.00;99.90;;;;;;5131201;28;20722;-49
2022/12/09 04:57:31;;;;;;;22.98;11.48;;;1.00;99.90;;;;;;5131315;28;20175;-47
2022/12/09 04:59:57;;;;;;;24.67;12.30;;;1.00;99.90;;;;;;5130841;28;20114;-46
2022/12/09 05:02:23;;;;;;;25.33;12.63;;;0.90;99.90;;;;;;5131222;28;20039;-46
2022/12/09 05:04:48;;;;;;;26.65;12.38;;;0.90;99.90;;;;;;5131039;28;20035;-46
2022/12/09 05:07:14;;;;;;;28.67;13.23;;;0.80;99.90;;;;;;5130311;28;20031;-48
2022/12/09 05:09:40;;;;;;;26.17;12.98;;;0.90;99.90;;;;;;5112589;28;20039;-45
2022/12/09 05:12:06;;;;;;;25.45;12.02;;;0.80;99.90;;;;;;5131137;27;20043;-45
2022/12/09 05:14:32;;;;;;;28.92;13.07;;;0.80;99.90;;;;;;5134498;27;20057;-44
2022/12/09 05:16:57;;;;;;;25.40;12.20;;;0.80;99.90;;;;;;5134990;27;20039;-44
2022/12/09 05:19:23;;;;;;;27.67;12.73;;;0.70;99.90;;;;;;5135165;27;20038;-44
2022/12/09 05:21:49;;;;;;;27.80;12.00;;;0.70;99.90;;;;;;5134870;27;20045;-45
2022/12/09 05:24:15;;;;;;;28.85;12.55;;;0.70;99.90;;;;;;5135213;27;20027;-46
2022/12/09 05:26:40;;;;;;;26.85;12.23;;;0.60;99.90;;;;;;5134786;27;20482;-44
2022/12/09 05:29:06;;;;;;;26.33;12.38;;;0.80;99.90;;;;;;5134840;27;20151;-44
2022/12/09 05:31:32;;;;;;;29.52;13.68;;;0.60;99.90;;;;;;5134818;27;20039;-46
2022/12/09 05:33:58;;;;;;;28.27;13.18;;;0.60;99.90;;;;;;5134378;27;20482;-47
2022/12/09 05:36:26;;;;;;;28.35;12.77;;;0.50;99.90;;;;;;5133719;27;20042;-46
2022/12/09 05:38:52;;;;;;;26.73;12.18;;;0.80;99.90;;;;;;5099464;27;20043;-46
2022/12/09 05:41:19;;;;;;;25.60;12.25;;;0.40;99.90;;;;;;5115877;27;20031;-47
2022/12/09 05:43:44;;;;;;;27.67;12.50;;;0.40;99.90;;;;;;5134372;27;20050;-48
2022/12/09 05:46:12;;;;;;;28.25;13.05;;;0.40;99.90;;;;;;5134550;27;20043;-45
2022/12/09 05:48:38;;;;;;;30.08;12.57;;;0.30;99.90;;;;;;5133164;27;20163;-47
2022/12/09 05:51:24;;;;;;;26.27;12.00;;;0.30;99.90;;;;;;5134173;27;20043;-47
2022/12/09 05:53:51;;;;;;;29.25;13.23;;;0.30;99.90;;;;;;5134403;27;20074;-45
2022/12/09 05:56:19;;;;;;;32.40;13.60;;;0.40;99.90;;;;;;5134466;27;20035;-46
2022/12/09 05:58:45;;;;;;;35.50;15.10;;;0.30;99.90;;;;;;5134451;27;20457;-48
2022/12/09 06:01:11;;;;;;;36.45;15.50;;;0.40;99.90;;;;;;5115975;27;20059;-46
2022/12/09 06:03:37;;;;;;;37.47;16.58;;;0.30;99.90;;;;;;5134196;27;20110;-47
2022/12/09 06:06:11;;;;;;;37.05;16.25;;;0.30;99.90;;;;;;5133495;27;20039;-47
2022/12/09 06:08:38;;;;;;;40.05;16.67;;;0.30;99.90;;;;;;5134026;27;20470;-44
2022/12/09 06:11:08;;;;;;;38.78;16.48;;;0.40;99.90;;;;;;5133975;27;20374;-48
2022/12/09 06:13:34;;;;;;;41.90;17.15;;;0.40;99.90;;;;;;5133663;27;20027;-47
2022/12/09 06:16:04;;;;;;;38.80;16.15;;;0.20;99.90;;;;;;5133862;27;20419;-47
2022/12/09 06:18:30;;;;;;;34.10;15.18;;;0.20;99.90;;;;;;5133856;27;20050;-44
2022/12/09 06:20:56;;;;;;;35.70;15.27;;;0.20;99.90;;;;;;5133835;27;20043;-46
2022/12/09 06:23:22;;;;;;;30.00;14.20;;;0.10;99.90;;;;;;5133473;27;20062;-44
2022/12/09 06:25:48;;;;;;;36.72;16.30;;;0.10;99.90;;;;;;5132223;27;20117;-47
2022/12/09 06:28:13;;;;;;;35.67;16.17;;;0.00;99.90;;;;;;5133760;27;20046;-44
2022/12/09 06:30:39;;;;;;;36.75;15.27;;;0.10;99.90;;;;;;5133579;27;20039;-46
2022/12/09 06:33:05;;;;;;;37.25;15.82;;;-0.10;99.90;;;;;;5133499;27;20118;-45
2022/12/09 06:35:31;;;;;;;38.38;14.63;;;-0.20;99.90;;;;;;5133313;27;20138;-44
2022/12/09 06:37:57;;;;;;;38.47;16.10;;;-0.20;99.90;;;;;;5133324;27;20466;-44
2022/12/09 06:40:23;;;;;;;40.90;16.65;;;-0.10;99.90;;;;;;5133452;27;20111;-47
2022/12/09 06:42:49;;;;;;;36.97;16.17;;;-0.10;99.90;;;;;;5133431;27;20382;-51
2022/12/09 06:45:19;;;;;;;40.08;16.52;;;-0.10;99.90;;;;;;5133430;27;20146;-44
2022/12/09 06:47:45;;;;;;;41.47;15.80;;;-0.10;99.90;;;;;;5131832;27;20035;-48
2022/12/09 06:50:11;;;;;;;34.38;15.07;;;-0.20;99.90;;;;;;5108225;27;20051;-45
2022/12/09 06:52:37;;;;;;;38.67;17.52;;;-0.10;99.90;;;;;;5125738;27;20039;-44
2022/12/09 06:55:04;;;;;;;35.50;15.77;;;0.10;99.90;;;;;;5123227;27;20047;-47
2022/12/09 06:57:30;;;;;;;41.42;17.23;;;0.00;99.90;;;;;;5130994;27;20042;-47
2022/12/09 06:59:56;;;;;;;45.20;18.10;;;0.10;99.90;;;;;;5110263;27;20043;-48
2022/12/09 07:02:21;;;;;;;47.63;17.88;;;0.20;99.90;;;;;;5125904;27;20034;-46
2022/12/09 07:04:52;;;;;;;47.65;18.98;;;0.40;99.90;;;;;;5093205;27;20122;-44
2022/12/09 07:07:17;;;;;;;43.78;17.90;;;0.20;99.90;;;;;;5130573;27;20043;-44
2022/12/09 07:09:43;;;;;;;55.13;20.40;;;0.50;99.90;;;;;;5108258;27;20055;-48
2022/12/09 07:12:09;;;;;;;56.35;20.85;;;0.40;99.90;;;;;;5124846;27;20499;-49
2022/12/09 07:14:35;;;;;;;55.00;19.80;;;0.60;99.90;;;;;;5126638;27;20159;-46
2022/12/09 07:17:01;;;;;;;183.82;22.67;;;0.50;99.90;;;;;;5129314;27;20047;-48
2022/12/09 07:19:26;;;;;;;138.93;22.00;;;0.50;99.90;;;;;;5126540;27;20115;-46
2022/12/09 07:21:52;;;;;;;142.30;23.35;;;0.50;99.90;;;;;;5123905;27;20074;-48
2022/12/09 07:24:18;;;;;;;284.58;25.73;;;0.50;99.90;;;;;;5129590;27;20402;-48
2022/12/09 07:26:44;;;;;;;198.35;21.98;;;0.60;99.90;;;;;;5128511;27;20138;-47
2022/12/09 07:29:10;;;;;;;225.13;23.25;;;0.60;99.90;;;;;;5107778;27;20115;-48
2022/12/09 07:31:36;;;;;;;163.38;25.25;;;0.70;99.90;;;;;;5123804;27;20466;-51
2022/12/09 07:34:03;;;;;;;220.05;24.88;;;0.50;99.90;;;;;;5129453;27;20063;-48
2022/12/09 07:36:30;;;;;;;143.82;23.73;;;0.70;99.90;;;;;;5108877;27;20108;-46
2022/12/09 07:38:59;;;;;;;195.90;25.15;;;0.50;99.90;;;;;;5126053;27;20039;-47
2022/12/09 07:41:25;;;;;;;149.93;24.00;;;0.50;99.90;;;;;;5105117;27;20039;-45
2022/12/09 07:43:50;;;;;;;164.30;26.02;;;0.70;99.90;;;;;;5128695;27;20394;-46
2022/12/09 07:46:19;;;;;;;78.30;23.67;;;0.50;99.90;;;;;;5127968;27;20031;-48
2022/12/09 07:48:45;;;;;;;219.80;25.30;;;0.70;99.90;;;;;;5124370;27;20083;-45
2022/12/09 07:51:11;;;;;;;232.15;23.05;;;0.70;99.90;;;;;;5102933;27;20096;-46
2022/12/09 07:53:38;;;;;;;225.93;25.73;;;0.60;99.90;;;;;;5130253;27;20035;-45
2022/12/09 07:56:06;;;;;;;306.38;26.40;;;0.40;99.90;;;;;;5126919;27;20035;-47
2022/12/09 07:58:32;;;;;;;321.63;24.60;;;0.60;99.90;;;;;;5123451;27;20485;-50
2022/12/09 08:01:09;;;;;;;255.20;22.20;;;0.50;99.90;;;;;;5120549;27;20554;-48
2022/12/09 08:03:35;;;;;;;332.35;25.50;;;0.20;99.90;;;;;;5121167;27;20074;-48
2022/12/09 08:06:01;;;;;;;329.17;27.48;;;0.70;99.90;;;;;;5124543;27;20046;-46
2022/12/09 08:08:27;;;;;;;283.67;26.63;;;0.30;99.90;;;;;;5131764;27;20471;-46
2022/12/09 08:10:53;;;;;;;267.95;23.92;;;0.20;99.90;;;;;;5131330;27;20054;-46
2022/12/09 08:13:20;;;;;;;253.18;23.92;;;0.20;99.90;;;;;;5131375;27;20035;-46
2022/12/09 08:15:46;;;;;;;246.65;25.02;;;0.40;99.90;;;;;;5127365;27;20501;-47
2022/12/09 08:18:11;;;;;;;423.55;31.60;;;0.10;99.90;;;;;;5120601;27;20121;-48
2022/12/09 08:20:38;;;;;;;253.55;24.65;;;0.10;99.90;;;;;;5121756;27;20176;-48
2022/12/09 08:23:04;;;;;;;291.92;23.02;;;0.00;99.90;;;;;;5121942;27;20167;-45
2022/12/09 08:25:29;;;;;;;207.73;22.60;;;0.40;99.90;;;;;;5121956;27;20179;-49
2022/12/09 08:27:55;;;;;;;354.50;26.90;;;0.10;99.90;;;;;;5121860;27;20039;-46
2022/12/09 08:30:21;;;;;;;250.38;22.52;;;0.40;99.90;;;;;;5121722;27;23186;-45
2022/12/09 08:32:47;;;;;;;354.48;26.38;;;0.00;99.90;;;;;;5120183;27;20046;-47
2022/12/09 08:35:13;;;;;;;244.95;21.35;;;0.00;99.90;;;;;;5119240;27;20385;-44
2022/12/09 08:37:42;;;;;;;205.95;20.85;;;0.20;99.90;;;;;;5121889;27;20484;-48
2022/12/09 08:40:09;;;;;;;202.57;19.92;;;0.00;99.90;;;;;;5101649;27;20053;-48
2022/12/09 08:42:35;;;;;;;219.07;19.45;;;0.00;99.90;;;;;;5103693;27;20035;-47
2022/12/09 08:45:01;;;;;;;159.00;19.08;;;-0.10;99.90;;;;;;5121726;27;20038;-46
2022/12/09 08:47:27;;;;;;;180.20;18.75;;;-0.10;99.90;;;;;;5119915;27;20680;-46
2022/12/09 08:49:53;;;;;;;124.30;16.67;;;-0.30;99.90;;;;;;5119799;27;20047;-45
2022/12/09 08:52:19;;;;;;;143.15;19.25;;;-0.20;99.90;;;;;;5121051;27;20394;-44
2022/12/09 08:54:44;;;;;;;170.20;18.67;;;-0.10;99.90;;;;;;5120376;27;20039;-44
2022/12/09 08:57:10;;;;;;;205.77;20.83;;;-0.10;99.90;;;;;;5114375;28;20035;-45
2022/12/09 08:59:36;;;;;;;209.50;19.70;;;-0.20;99.90;;;;;;5117882;28;20023;-44
2022/12/09 09:02:01;;;;;;;160.02;16.40;;;-0.10;99.90;;;;;;5101932;28;20031;-45
2022/12/09 09:04:27;;;;;;;182.10;19.35;;;-0.30;99.90;;;;;;5102325;28;20438;-45
2022/12/09 09:06:53;;;;;;;135.52;19.15;;;-0.10;99.90;;;;;;5119730;28;20066;-45
2022/12/09 09:09:20;;;;;;;100.88;14.43;;;-0.20;99.90;;;;;;5120756;28;20059;-48
2022/12/09 09:11:46;;;;;;;207.07;18.08;;;-0.40;99.90;;;;;;5100712;28;20032;-50
2022/12/09 09:14:12;;;;;;;148.45;15.88;;;-0.60;99.90;;;;;;5116949;28;20102;-45
2022/12/09 09:16:40;;;;;;;157.82;16.88;;;-0.40;99.90;;;;;;5119673;28;20046;-46
2022/12/09 09:19:07;;;;;;;118.60;14.52;;;-0.20;99.90;;;;;;5119163;28;20039;-45
2022/12/09 09:21:33;;;;;;;78.70;13.48;;;-0.30;99.90;;;;;;5116051;28;20034;-47
2022/12/09 09:23:59;;;;;;;208.93;17.85;;;-0.50;99.90;;;;;;5116903;28;20031;-45
2022/12/09 09:26:26;;;;;;;111.72;16.77;;;-0.70;99.90;;;;;;5119304;28;20035;-47
2022/12/09 09:28:54;;;;;;;117.85;16.50;;;-0.70;99.90;;;;;;5119004;28;20073;-47
2022/12/09 09:31:22;;;;;;;112.32;16.27;;;-0.30;99.90;;;;;;5121761;28;20023;-47
2022/12/09 09:33:48;;;;;;;68.35;17.35;;;-0.30;99.90;;;;;;5122269;28;20039;-46
2022/12/09 09:36:20;;;;;;;112.95;18.05;;;-0.40;99.90;;;;;;5119687;28;20035;-48
2022/12/09 09:38:50;;;;;;;89.15;16.35;;;-0.30;99.90;;;;;;5115106;28;20393;-47
2022/12/09 09:41:33;;;;;;;111.93;18.25;;;-0.20;99.90;;;;;;5099740;28;20482;-47
2022/12/09 09:43:59;;;;;;;129.43;18.00;;;-0.30;99.90;;;;;;5120055;28;20123;-45
2022/12/09 09:46:38;;;;;;;95.35;19.35;;;-0.40;99.90;;;;;;5120685;28;20154;-48
2022/12/09 09:49:09;;;;;;;138.70;21.80;;;-0.30;99.90;;;;;;5090275;28;20056;-47
2022/12/09 09:51:35;;;;;;;112.95;22.92;;;-0.20;99.90;;;;;;5084196;28;20043;-46
2022/12/09 09:54:01;;;;;;;85.88;19.73;;;-0.50;99.90;;;;;;5083080;28;20067;-46
2022/12/09 09:56:30;;;;;;;95.50;18.42;;;-0.10;99.90;;;;;;5079574;28;20478;-45
2022/12/09 09:59:23;;;;;;;77.88;16.10;;;-0.20;99.90;;;;;;5085335;28;20036;-46
2022/12/09 10:02:14;;;;;;;68.88;20.13;;;-0.30;99.90;;;;;;5090629;28;20036;-50
2022/12/09 10:04:42;;;;;;;115.57;18.25;;;-0.20;99.90;;;;;;5083216;28;20487;-47
2022/12/09 10:07:20;;;;;;;101.53;18.52;;;0.10;99.90;;;;;;5084954;28;20048;-48
2022/12/09 10:09:59;;;;;;;106.57;20.80;;;-0.10;99.90;;;;;;5085478;28;20917;-49
2022/12/09 10:12:45;;;;;;;235.80;23.88;;;0.10;99.90;;;;;;5089724;28;20127;-49
2022/12/09 10:15:18;;;;;;;134.98;19.98;;;-0.20;99.90;;;;;;5089547;28;20039;-47
2022/12/09 10:18:09;;;;;;;88.57;16.55;;;-0.10;99.90;;;;;;5085057;28;20056;-46
2022/12/09 10:20:36;;;;;;;98.93;16.90;;;0.10;99.90;;;;;;5085453;28;20036;-48
2022/12/09 10:23:09;;;;;;;118.82;19.73;;;0.00;99.90;;;;;;5085745;28;20055;-45
2022/12/09 10:25:41;;;;;;;85.07;17.57;;;-0.10;99.90;;;;;;5085476;28;20028;-47
2022/12/09 10:28:26;;;;;;;81.63;18.63;;;0.20;99.90;;;;;;5081953;28;20070;-44
2022/12/09 10:30:54;;;;;;;92.00;17.63;;;1.40;99.90;;;;;;5085952;28;20361;-44
2022/12/09 10:33:26;;;;;;;71.40;16.75;;;0.00;99.90;;;;;;5087861;28;20123;-45
2022/12/09 10:35:52;;;;;;;172.70;19.67;;;0.10;99.90;;;;;;5086328;28;20074;-45
2022/12/09 10:38:19;;;;;;;67.90;18.25;;;0.00;99.90;;;;;;5086046;28;20036;-44
2022/12/09 10:40:51;;;;;;;131.60;20.70;;;0.20;99.90;;;;;;5088148;28;20364;-44
2022/12/09 10:43:42;;;;;;;89.97;26.35;;;0.20;99.90;;;;;;5086055;28;20440;-46
2022/12/09 10:46:16;;;;;;;80.38;19.38;;;0.40;99.90;;;;;;5077997;28;20111;-45
2022/12/09 10:48:49;;;;;;;;;;;0.40;99.90;;;;;;5091753;28;20066;-47
2022/12/09 10:51:28;;;;;;;60.30;19.35;;;0.50;99.90;;;;;;5109790;28;20547;-44
2022/12/09 10:54:02;;;;;;;165.48;20.85;;;0.80;99.90;;;;;;5112303;28;20043;-45
2022/12/09 10:56:31;;;;;;;59.25;20.48;;;0.80;99.90;;;;;;5112508;28;20111;-49
2022/12/09 10:59:17;;;;;;;55.13;19.92;;;0.70;99.90;;;;;;5108097;28;20047;-45
2022/12/09 11:01:58;;;;;;;58.17;19.48;;;0.80;99.90;;;;;;5110372;28;20540;-48
2022/12/09 11:04:50;;;;;;;55.50;19.60;;;0.90;99.90;;;;;;5111784;28;20085;-47
2022/12/09 11:07:24;;;;;;;62.78;23.27;;;1.00;99.90;;;;;;5107718;28;20051;-47
2022/12/09 11:09:55;;;;;;;64.25;23.17;;;1.20;99.90;;;;;;5111458;28;20034;-46
2022/12/09 11:12:27;;;;;;;62.63;23.10;;;1.40;99.90;;;;;;5110460;28;20094;-46
2022/12/09 11:15:03;;;;;;;62.10;24.17;;;1.70;99.90;;;;;;5112386;28;20483;-47
2022/12/09 11:17:35;;;;;;;61.47;24.33;;;2.00;99.90;;;;;;5110806;28;20451;-48
2022/12/09 11:20:03;;;;;;;51.88;22.42;;;2.50;99.90;;;;;;5111880;28;20027;-45
2022/12/09 11:22:58;;;;;;;55.58;22.48;;;3.40;99.90;;;;;;5112102;28;20482;-46
2022/12/09 11:25:28;;;;;;;46.75;21.23;;;3.40;99.90;;;;;;5085128;28;20135;-45
2022/12/09 11:27:57;;;;;;;41.92;20.75;;;4.00;99.90;;;;;;5111756;28;20048;-46
2022/12/09 11:30:47;;;;;;;32.55;16.90;;;4.40;99.90;;;;;;5112164;28;20032;-46
2022/12/09 11:33:13;;;;;;;31.02;17.02;;;4.50;99.90;;;;;;5098541;28;20408;-46
2022/12/09 11:35:41;;;;;;;31.95;16.85;;;4.80;99.90;;;;;;5110381;28;20065;-50
2022/12/09 11:38:18;;;;;;;34.78;17.40;;;4.40;99.90;;;;;;5111289;28;20047;-47
2022/12/09 11:40:58;;;;;;;33.05;17.23;;;4.30;99.90;;;;;;5111501;28;20043;-46
2022/12/09 11:44:00;;;;;;;33.30;17.63;;;4.30;99.90;;;;;;5112029;28;20035;-47
2022/12/09 11:46:31;;;;;;;29.25;18.15;;;4.50;99.90;;;;;;5110214;28;20039;-47
2022/12/09 11:49:04;;;;;;;28.67;17.02;;;4.80;99.90;;;;;;5120857;27;20417;-46
2022/12/09 11:51:40;;;;;;;30.13;18.65;;;5.00;99.90;;;;;;5113532;27;20103;-47
2022/12/09 11:54:17;;;;;;;25.55;15.90;;;5.10;99.90;;;;;;5132122;27;20084;-47
2022/12/09 11:56:43;;;;;;;25.45;17.17;;;5.10;99.90;;;;;;5131785;27;20082;-48
2022/12/09 11:59:15;;;;;;;25.85;16.63;;;5.10;99.90;;;;;;5132109;27;20119;-46
2022/12/09 12:02:09;;;;;;;24.40;16.10;;;5.20;99.90;;;;;;5131771;27;20066;-46
2022/12/09 12:04:57;;;;;;;25.20;16.50;;;5.30;99.90;;;;;;5131342;27;20566;-46
2022/12/09 12:07:38;;;;;;;24.30;15.82;;;5.50;99.90;;;;;;5129285;27;20126;-46
2022/12/09 12:10:20;;;;;;;21.77;15.30;;;5.60;99.90;;;;;;5131463;27;20380;-46
2022/12/09 12:12:59;;;;;;;22.67;14.88;;;5.80;99.90;;;;;;5131895;27;20115;-48
2022/12/09 12:15:43;;;;;;;23.30;15.93;;;5.70;99.90;;;;;;5124627;27;20042;-46
2022/12/09 12:18:14;;;;;;;20.45;14.35;;;5.60;99.90;;;;;;5127074;27;20547;-47
2022/12/09 12:20:47;;;;;;;21.95;15.45;;;5.60;99.90;;;;;;5109034;27;20031;-45
2022/12/09 12:23:25;;;;;;;22.48;15.50;;;5.50;99.90;;;;;;5125243;27;20099;-48
2022/12/09 12:25:58;;;;;;;23.70;16.00;;;5.60;99.90;;;;;;5127791;27;20375;-45
2022/12/09 12:28:26;;;;;;;25.13;16.53;;;5.80;99.90;;;;;;5127569;27;20054;-48
2022/12/09 12:31:14;;;;;;;24.35;16.50;;;5.90;99.90;;;;;;5129925;27;20039;-45
2022/12/09 12:33:55;;;;;;;24.52;14.93;;;6.10;99.90;;;;;;5126331;27;20082;-47
2022/12/09 12:36:34;;;;;;;25.25;16.67;;;6.10;99.90;;;;;;5122594;27;20112;-48
2022/12/09 12:39:12;;;;;;;21.25;14.82;;;6.10;99.90;;;;;;5127953;27;20050;-45
2022/12/09 12:42:06;;;;;;;23.83;15.95;;;6.00;99.90;;;;;;5121711;27;20560;-49
2022/12/09 12:47:30;;;;;;;22.13;15.38;;;5.70;99.90;;;;;;5120106;27;20297;-48
2022/12/09 12:50:11;;;;;;;21.95;14.73;;;5.60;99.90;;;;;;5125902;27;20497;-47
2022/12/09 12:53:05;;;;;;;23.80;15.68;;;5.60;99.90;;;;;;5123908;27;20035;-45